Time;durP1;ratioP1;P1;durP2;ratioP2;P2;SDS_P1;SDS_P2;PMS_P1;PMS_P2;Temp;Humidity;BMP_temperature;BMP_pressure;BME280_temperature;BME280_humidity;BME280_pressure;Samples;Min_cycle;Max_cycle;Signal;HPM_P1;HPM_P2
2021/03/31 00:00:32;;;;;;;38.58;23.38;;;;;;;2.51;69.21;100572.95;1822050;78;21079;-61
2021/03/31 00:03:03;;;;;;;34.88;22.07;;;;;;;2.51;69.20;100576.81;1822029;78;21091;-61
2021/03/31 00:05:30;;;;;;;35.45;22.05;;;;;;;2.51;69.06;100566.54;1822071;78;21055;-61
2021/03/31 00:07:59;;;;;;;34.70;21.25;;;;;;;2.50;68.83;100569.95;1806471;79;21044;-61
2021/03/31 00:10:40;;;;;;;37.65;22.13;;;;;;;2.50;68.56;100559.69;1822080;78;21207;-61
2021/03/31 00:13:08;;;;;;;34.43;19.23;;;;;;;2.50;68.30;100559.69;1822018;78;21083;-61
2021/03/31 00:15:35;;;;;;;33.45;21.27;;;;;;;2.50;67.77;100558.82;1806339;79;21096;-61
2021/03/31 00:18:08;;;;;;;32.25;20.65;;;;;;;2.50;67.26;100560.97;1822092;78;21103;-61
2021/03/31 00:20:37;;;;;;;34.27;21.90;;;;;;;2.48;67.81;100559.23;1822560;78;21098;-61
2021/03/31 00:23:07;;;;;;;38.20;22.25;;;;;;;2.47;67.84;100566.06;1822245;78;21199;-61
2021/03/31 00:25:36;;;;;;;34.50;21.30;;;;;;;2.47;67.91;100563.50;1806454;79;21135;-62
2021/03/31 00:28:06;;;;;;;42.67;23.85;;;;;;;2.47;68.04;100557.50;1822321;78;21102;-62
2021/03/31 00:30:33;;;;;;;43.35;25.75;;;;;;;2.46;68.36;100557.06;1806432;79;21112;-62
2021/03/31 00:33:01;;;;;;;36.60;21.97;;;;;;;2.45;68.75;100561.77;1824000;78;21032;-62
2021/03/31 00:35:30;;;;;;;32.63;21.27;;;;;;;2.45;68.64;100560.48;1812501;79;21473;-62
2021/03/31 00:37:57;;;;;;;33.33;22.17;;;;;;;2.45;68.49;100563.91;1825367;78;21072;-62
2021/03/31 00:40:29;;;;;;;37.90;23.42;;;;;;;2.46;68.07;100557.93;1812557;79;21540;-62
2021/03/31 00:42:57;;;;;;;36.25;21.48;;;;;;;2.51;67.73;100554.98;1811680;79;21064;-62
2021/03/31 00:45:27;;;;;;;34.45;22.20;;;;;;;2.56;67.62;100548.19;1825389;78;21555;-62
2021/03/31 00:47:55;;;;;;;35.30;20.12;;;;;;;2.57;67.92;100550.33;1812453;79;21351;-62
2021/03/31 00:50:23;;;;;;;37.25;21.85;;;;;;;2.61;68.18;100551.63;1825303;78;21178;-62
2021/03/31 00:52:52;;;;;;;35.15;21.02;;;;;;;2.66;68.35;100546.53;1812421;78;21056;-62
2021/03/31 00:55:23;;;;;;;37.78;22.30;;;;;;;2.71;68.62;100541.02;1825428;78;21449;-62
2021/03/31 00:57:51;;;;;;;35.08;22.65;;;;;;;2.79;68.70;100538.09;1825461;78;21143;-62
2021/03/31 01:00:19;;;;;;;38.17;22.73;;;;;;;2.87;68.44;100538.13;1812544;78;22119;-62
2021/03/31 01:02:47;;;;;;;35.20;22.55;;;;;;;2.93;67.97;100528.75;1825344;78;21083;-62
2021/03/31 01:05:29;;;;;;;36.75;21.87;;;;;;;3.01;67.47;100533.49;1825398;78;21527;-62
2021/03/31 01:07:57;;;;;;;32.55;20.72;;;;;;;3.06;66.76;100531.82;1825489;78;21562;-62
2021/03/31 01:10:38;;;;;;;32.73;20.52;;;;;;;3.11;66.33;100529.28;1812468;79;21090;-62
2021/03/31 01:13:44;;;;;;;54.35;20.75;;;;;;;3.18;65.97;100532.76;1825440;78;21895;-62
2021/03/31 01:16:29;;;;;;;29.63;18.95;;;;;;;3.23;65.76;100531.91;1812382;79;21087;-62
2021/03/31 01:19:32;;;;;;;35.92;20.40;;;;;;;3.29;65.54;100523.38;1825513;78;21468;-62
2021/03/31 01:22:55;;;;;;;27.75;18.42;;;;;;;3.35;65.45;100519.55;1812552;79;21236;-62
2021/03/31 01:25:50;;;;;;;27.90;18.17;;;;;;;3.42;65.41;100519.57;1825524;78;21539;-62
2021/03/31 01:28:29;;;;;;;28.73;18.07;;;;;;;3.48;65.41;100519.17;1812467;79;22127;-62
2021/03/31 01:31:15;;;;;;;28.30;17.50;;;;;;;3.51;65.12;100511.47;1824869;78;21071;-62
2021/03/31 01:34:21;;;;;;;24.10;16.32;;;;;;;3.55;65.05;100506.77;1807725;78;21190;-63
2021/03/31 01:36:51;;;;;;;39.30;18.25;;;;;;;3.59;64.53;100508.52;1822169;78;21473;-61
2021/03/31 01:39:19;;;;;;;28.95;17.30;;;;;;;3.65;64.32;100512.36;1806516;79;21496;-61
2021/03/31 01:41:47;;;;;;;28.55;17.17;;;;;;;3.69;64.30;100503.81;1792631;78;21389;-61
2021/03/31 01:44:15;;;;;;;33.50;18.62;;;;;;;3.72;64.33;100503.39;1806352;79;21118;-61
2021/03/31 01:46:54;;;;;;;27.27;17.20;;;;;;;3.76;64.47;100502.98;1822115;78;21099;-61
2021/03/31 01:49:25;;;;;;;31.40;17.42;;;;;;;3.79;64.67;100501.70;1806466;79;21150;-62
2021/03/31 01:51:55;;;;;;;25.95;17.75;;;;;;;3.79;64.61;100510.29;1793027;78;21151;-62
2021/03/31 01:54:23;;;;;;;32.75;17.82;;;;;;;3.79;64.45;100506.42;1806568;79;22276;-62
2021/03/31 01:56:51;;;;;;;27.40;17.17;;;;;;;3.82;64.40;100505.55;1822114;78;21084;-62
2021/03/31 01:59:19;;;;;;;27.80;18.52;;;;;;;3.84;64.16;100502.55;1803709;79;21068;-62
2021/03/31 02:01:49;;;;;;;27.65;18.07;;;;;;;3.87;64.23;100498.70;1822207;78;21115;-61
2021/03/31 02:04:17;;;;;;;34.33;18.70;;;;;;;3.93;64.20;100499.16;1806482;79;21477;-61
2021/03/31 02:06:45;;;;;;;28.77;17.50;;;;;;;3.97;64.08;100491.45;1822161;78;21205;-61
2021/03/31 02:09:13;;;;;;;24.32;16.97;;;;;;;4.03;64.03;100489.28;1806366;79;21183;-62
2021/03/31 02:11:44;;;;;;;28.85;17.60;;;;;;;4.08;63.88;100485.87;1822117;78;21084;-62
2021/03/31 02:14:17;;;;;;;39.98;18.40;;;;;;;4.13;63.96;100481.59;1822189;78;21068;-61
2021/03/31 02:16:46;;;;;;;31.75;18.57;;;;;;;4.17;63.95;100486.32;1806478;79;21138;-63
2021/03/31 02:19:16;;;;;;;30.08;18.37;;;;;;;4.19;64.05;100485.03;1822132;78;21381;-60
2021/03/31 02:21:45;;;;;;;26.75;16.95;;;;;;;4.22;64.31;100484.58;1806376;78;21571;-61
2021/03/31 02:24:17;;;;;;;26.35;17.10;;;;;;;4.27;64.46;100485.45;1822137;78;21552;-61
2021/03/31 02:26:44;;;;;;;30.52;17.02;;;;;;;4.28;63.83;100488.45;1806432;79;21112;-61
2021/03/31 02:29:12;;;;;;;27.65;15.80;;;;;;;4.29;63.27;100495.33;1822084;78;21611;-62
2021/03/31 02:31:44;;;;;;;22.73;16.20;;;;;;;4.32;63.07;100484.17;1806370;78;21115;-61
2021/03/31 02:34:14;;;;;;;28.23;16.32;;;;;;;4.33;62.93;100484.59;1824607;78;21063;-61
2021/03/31 02:36:41;;;;;;;25.02;15.83;;;;;;;4.34;62.83;100483.74;1812456;79;21464;-61
2021/03/31 02:39:11;;;;;;;22.50;15.85;;;;;;;4.34;62.85;100484.60;1825331;78;21075;-61
2021/03/31 02:41:43;;;;;;;21.82;15.30;;;;;;;4.37;62.68;100488.90;1825294;78;21477;-62
2021/03/31 02:44:12;;;;;;;21.70;16.45;;;;;;;4.36;62.74;100490.61;1812598;79;21449;-61
2021/03/31 02:46:42;;;;;;;26.27;17.20;;;;;;;4.33;62.64;100489.32;1825209;78;21056;-61
2021/03/31 02:49:11;;;;;;;26.65;16.73;;;;;;;4.31;62.73;100485.03;1812447;78;21048;-61
2021/03/31 02:51:40;;;;;;;22.40;15.32;;;;;;;4.34;62.82;100483.74;1825215;78;21491;-61
2021/03/31 02:54:09;;;;;;;22.40;16.73;;;;;;;4.38;62.38;100468.72;1812377;78;21465;-62
2021/03/31 02:56:41;;;;;;;23.90;17.48;;;;;;;4.42;62.26;100467.84;1825244;78;21076;-62
2021/03/31 02:59:10;;;;;;;27.87;16.02;;;;;;;4.42;62.37;100462.26;1812319;79;21068;-61
2021/03/31 03:01:39;;;;;;;26.20;16.50;;;;;;;4.43;62.38;100462.69;1825294;78;21480;-61
2021/03/31 03:04:07;;;;;;;25.55;16.30;;;;;;;4.46;62.43;100459.25;1798029;78;21554;-61
2021/03/31 03:06:36;;;;;;;29.85;16.27;;;;;;;4.52;62.22;100463.55;1760797;79;21123;-61
2021/03/31 03:09:07;;;;;;;25.48;16.23;;;;;;;4.58;62.08;100465.70;1825267;78;21200;-61
2021/03/31 03:11:36;;;;;;;27.17;17.23;;;;;;;4.62;62.03;100463.95;1785687;79;21610;-61
2021/03/31 03:14:06;;;;;;;24.23;16.42;;;;;;;4.67;61.78;100457.94;1825304;78;21111;-61
2021/03/31 03:16:33;;;;;;;20.02;17.00;;;;;;;4.71;61.71;100460.08;1812413;79;21560;-62
2021/03/31 03:19:03;;;;;;;23.75;16.25;;;;;;;4.79;61.62;100464.80;1825291;78;21165;-61
2021/03/31 03:21:30;;;;;;;21.07;15.35;;;;;;;4.80;61.58;100454.89;1812306;79;21403;-61
2021/03/31 03:23:58;;;;;;;23.77;15.85;;;;;;;4.83;61.61;100459.62;1825248;78;21076;-61
2021/03/31 03:26:26;;;;;;;23.12;15.68;;;;;;;4.85;61.30;100459.61;1812327;79;21113;-62
2021/03/31 03:28:53;;;;;;;23.02;14.65;;;;;;;4.88;60.95;100462.62;1825253;78;21123;-62
2021/03/31 03:31:21;;;;;;;19.67;13.75;;;;;;;4.88;60.79;100454.45;1812410;79;21568;-62
2021/03/31 03:33:49;;;;;;;21.10;13.78;;;;;;;4.89;60.59;100454.02;1823500;78;21219;-63
2021/03/31 03:36:18;;;;;;;19.90;13.83;;;;;;;4.90;60.30;100453.16;1806303;79;21497;-62
2021/03/31 03:38:45;;;;;;;19.23;13.38;;;;;;;4.93;60.21;100450.59;1822115;78;21111;-62
2021/03/31 03:41:13;;;;;;;18.75;13.90;;;;;;;4.94;60.11;100456.17;1806334;79;21151;-62
2021/03/31 03:43:42;;;;;;;17.92;13.58;;;;;;;4.93;60.10;100459.17;1822107;78;21048;-61
2021/03/31 03:46:12;;;;;;;20.80;13.35;;;;;;;4.94;60.04;100458.75;1806310;79;21198;-62
2021/03/31 03:48:40;;;;;;;25.75;15.23;;;;;;;4.97;60.00;100469.05;1821992;78;21123;-62
2021/03/31 03:51:09;;;;;;;33.15;15.95;;;;;;;4.96;60.02;100460.46;1806413;79;21044;-62
2021/03/31 03:53:37;;;;;;;28.23;14.87;;;;;;;4.95;60.09;100456.16;1822166;78;21048;-62
2021/03/31 03:56:12;;;;;;;33.92;16.27;;;;;;;4.94;60.16;100456.17;1792329;78;21116;-62
2021/03/31 03:58:39;;;;;;;27.55;14.80;;;;;;;4.98;60.15;100451.44;1806551;79;21359;-62
2021/03/31 04:01:07;;;;;;;25.92;14.13;;;;;;;5.03;60.27;100443.23;1822253;78;21555;-62
2021/03/31 04:03:35;;;;;;;32.67;15.93;;;;;;;5.08;60.03;100448.80;1806511;79;21107;-62
2021/03/31 04:06:06;;;;;;;36.48;16.07;;;;;;;5.13;60.06;100446.22;1822252;78;21111;-62
2021/03/31 04:08:33;;;;;;;34.55;15.60;;;;;;;5.18;60.11;100445.77;1806625;79;21152;-62
2021/03/31 04:11:01;;;;;;;25.68;13.75;;;;;;;5.22;60.05;100438.86;1822248;78;21365;-62
2021/03/31 04:13:30;;;;;;;26.80;13.83;;;;;;;5.27;59.74;100442.28;1822196;78;21476;-61
2021/03/31 04:16:07;;;;;;;24.70;14.85;;;;;;;5.30;59.29;100436.68;1752341;79;21480;-61
2021/03/31 04:18:36;;;;;;;25.55;14.10;;;;;;;5.33;59.29;100438.39;1822361;78;21599;-61
2021/03/31 04:21:05;;;;;;;34.67;14.13;;;;;;;5.38;59.13;100443.97;1806510;79;21116;-61
2021/03/31 04:23:34;;;;;;;21.75;14.45;;;;;;;5.44;58.87;100440.05;1767504;78;22262;-61
2021/03/31 04:26:03;;;;;;;26.68;14.83;;;;;;;5.49;58.37;100436.16;1806401;79;21158;-61
2021/03/31 04:28:30;;;;;;;39.53;14.78;;;;;;;5.50;57.90;100445.61;1822227;78;21481;-61
2021/03/31 04:30:58;;;;;;;38.13;15.28;;;;;;;5.54;57.90;100439.14;1822211;78;21060;-61
2021/03/31 04:33:25;;;;;;;31.30;12.65;;;;;;;5.62;57.87;100435.64;1807031;79;21177;-62
2021/03/31 04:35:54;;;;;;;119.87;23.12;;;;;;;5.68;57.66;100433.89;1822223;78;21480;-61
2021/03/31 04:38:23;;;;;;;35.10;15.20;;;;;;;5.75;57.47;100425.69;1822220;78;21553;-63
2021/03/31 04:40:58;;;;;;;28.17;12.50;;;;;;;5.81;57.23;100422.60;1809597;79;21250;-62
2021/03/31 04:43:31;;;;;;;48.25;15.28;;;;;;;5.83;56.93;100419.58;1822223;78;21102;-61
2021/03/31 04:46:00;;;;;;;50.10;14.93;;;;;;;5.85;56.94;100423.45;1809615;79;21043;-61
2021/03/31 04:48:28;;;;;;;43.90;13.98;;;;;;;5.92;57.09;100419.99;1822309;78;21364;-61
2021/03/31 04:50:57;;;;;;;34.43;13.60;;;;;;;5.99;56.94;100425.55;1822114;78;21134;-61
2021/03/31 04:53:25;;;;;;;43.52;15.32;;;;;;;6.07;56.87;100423.74;1809634;79;21510;-61
2021/03/31 04:55:53;;;;;;;38.78;15.63;;;;;;;6.16;56.67;100424.12;1822176;78;21175;-61
2021/03/31 04:58:21;;;;;;;29.72;14.58;;;;;;;6.22;56.91;100421.45;1809570;79;21178;-61
2021/03/31 05:00:48;;;;;;;27.27;14.90;;;;;;;6.26;56.84;100421.86;1792080;78;21404;-62
2021/03/31 05:03:16;;;;;;;32.95;15.25;;;;;;;6.32;56.74;100423.55;1809594;79;21103;-62
2021/03/31 05:05:43;;;;;;;86.45;21.77;;;;;;;6.38;56.84;100426.08;1822143;78;21138;-62
2021/03/31 05:08:11;;;;;;;57.10;18.60;;;;;;;6.42;56.58;100421.28;1809534;79;21060;-62
2021/03/31 05:10:38;;;;;;;40.17;16.37;;;;;;;6.49;56.80;100428.11;1822264;78;21044;-62
2021/03/31 05:13:06;;;;;;;50.43;17.27;;;;;;;6.59;56.79;100422.44;1808462;79;22256;-65
2021/03/31 05:15:34;;;;;;;33.67;16.73;;;;;;;6.68;56.91;100423.18;1821739;78;21189;-62
2021/03/31 05:18:03;;;;;;;30.57;16.57;;;;;;;6.78;56.89;100418.78;1809347;79;21143;-63
2021/03/31 05:20:32;;;;;;;78.95;21.15;;;;;;;6.83;56.84;100420.42;1822021;78;21032;-63
2021/03/31 05:22:59;;;;;;;49.33;19.70;;;;;;;6.91;56.93;100426.38;1809497;79;21568;-62
2021/03/31 05:25:27;;;;;;;52.17;17.25;;;;;;;7.00;56.96;100425.39;1822144;78;22399;-61
2021/03/31 05:27:55;;;;;;;35.30;16.20;;;;;;;7.09;56.83;100429.62;1809488;79;21119;-61
2021/03/31 05:30:24;;;;;;;34.03;16.07;;;;;;;7.17;56.72;100425.22;1822078;78;21181;-63
2021/03/31 05:32:52;;;;;;;38.20;14.78;;;;;;;7.29;56.59;100424.20;1809455;79;21136;-62
2021/03/31 05:35:20;;;;;;;32.03;15.55;;;;;;;7.38;56.56;100428.83;1820279;78;21064;-62
2021/03/31 05:37:48;;;;;;;49.10;16.97;;;;;;;7.42;56.75;100429.62;1796203;79;21478;-63
2021/03/31 05:40:16;;;;;;;31.25;16.87;;;;;;;7.41;57.06;100427.91;1810907;79;21154;-60
2021/03/31 05:42:44;;;;;;;45.43;17.37;;;;;;;7.44;57.20;100432.61;1796256;79;21114;-62
2021/03/31 05:45:14;;;;;;;34.83;16.60;;;;;;;7.54;57.20;100438.09;1810870;79;21056;-62
2021/03/31 05:47:45;;;;;;;62.15;17.70;;;;;;;7.61;57.25;100435.81;1796312;79;21444;-61
2021/03/31 05:50:15;;;;;;;46.10;18.37;;;;;;;7.66;57.32;100425.84;1786905;79;21433;-62
2021/03/31 05:52:44;;;;;;;25.08;16.10;;;;;;;7.72;57.47;100426.61;1796086;79;21185;-62
2021/03/31 05:55:15;;;;;;;36.83;17.73;;;;;;;7.73;57.38;100428.77;1810956;79;21091;-62
2021/03/31 05:57:43;;;;;;;55.43;18.17;;;;;;;7.74;57.68;100426.59;1796168;78;21047;-62
2021/03/31 06:00:20;;;;;;;28.47;15.83;;;;;;;7.81;57.71;100427.76;1811001;79;21033;-62
2021/03/31 06:02:49;;;;;;;22.37;15.93;;;;;;;7.88;58.04;100428.09;1796177;79;21369;-61
2021/03/31 06:05:18;;;;;;;29.55;16.70;;;;;;;7.96;58.57;100426.69;1810858;79;21220;-62
2021/03/31 06:07:49;;;;;;;22.07;15.63;;;;;;;8.05;59.30;100426.97;1796064;79;21157;-62
2021/03/31 06:10:21;;;;;;;28.15;19.00;;;;;;;8.15;60.10;100425.95;1811019;79;21623;-62
2021/03/31 06:13:01;;;;;;;23.25;17.42;;;;;;;8.27;60.83;100428.33;1798217;79;21054;-62
2021/03/31 06:15:39;;;;;;;30.72;19.17;;;;;;;8.36;61.44;100432.11;1764696;79;21229;-62
2021/03/31 06:18:15;;;;;;;34.15;21.75;;;;;;;8.41;61.54;100432.01;1795067;79;22282;-62
2021/03/31 06:20:59;;;;;;;38.90;24.55;;;;;;;8.46;61.72;100430.20;1809848;79;21603;-61
2021/03/31 06:26:41;;;;;;;45.88;25.97;;;;;;;8.68;62.32;100426.78;1888339;76;22511;-64
2021/03/31 06:29:12;;;;;;;35.55;23.75;;;;;;;8.68;62.46;100423.75;1775311;80;21158;-64
2021/03/31 06:31:45;;;;;;;29.45;22.05;;;;;;;8.76;62.55;100423.61;1773906;81;21363;-63
2021/03/31 06:34:19;;;;;;;37.73;27.52;;;;;;;8.81;62.25;100414.84;1775192;80;20910;-65
2021/03/31 06:36:52;;;;;;;31.10;22.52;;;;;;;8.88;62.12;100422.07;1773844;81;21580;-63
2021/03/31 06:39:30;;;;;;;38.15;24.87;;;;;;;8.88;62.00;100425.96;1775258;80;21155;-64
2021/03/31 06:42:19;;;;;;;32.83;23.12;;;;;;;8.88;62.08;100425.52;1769529;81;21540;-64
2021/03/31 06:47:35;;;;;;;29.82;21.62;;;;;;;9.06;62.41;100419.55;1776800;80;21107;-63
2021/03/31 06:50:01;;;;;;;29.92;21.12;;;;;;;9.19;62.85;100408.88;1749815;81;21147;-66
2021/03/31 06:52:29;;;;;;;32.00;22.55;;;;;;;9.36;62.77;100413.74;1818935;78;21154;-63
2021/03/31 06:55:03;;;;;;;26.62;20.30;;;;;;;9.53;62.62;100409.03;1818990;78;21633;-64
2021/03/31 06:57:34;;;;;;;;;;;;;;;9.71;62.34;100405.60;1821768;78;22275;-66
2021/03/31 07:00:16;;;;;;;28.15;20.48;;;;;;;9.84;61.98;100404.41;1815226;78;20273;-64
2021/03/31 07:02:46;;;;;;;24.27;19.50;;;;;;;10.01;61.73;100400.97;1764608;80;21077;-64
2021/03/31 07:05:15;;;;;;;23.00;19.05;;;;;;;10.15;61.45;100405.84;1717127;82;21512;-63
2021/03/31 07:07:42;;;;;;;28.90;20.65;;;;;;;10.29;61.10;100404.62;1764588;78;21468;-63
2021/03/31 07:10:19;;;;;;;22.30;18.73;;;;;;;10.42;60.46;100399.10;1792521;78;21375;-63
2021/03/31 07:15:30;;;;;;;22.20;17.32;;;;;;;10.73;60.08;100388.75;1724435;83;21060;-64
2021/03/31 07:18:01;;;;;;;19.20;17.23;;;;;;;10.86;59.61;100383.60;1746121;81;21189;-64
2021/03/31 07:20:31;;;;;;;21.10;18.55;;;;;;;10.91;58.92;100382.59;1773567;80;21129;-66
2021/03/31 07:23:00;;;;;;;21.17;18.17;;;;;;;10.90;59.02;100380.88;1770596;80;21363;-64
2021/03/31 07:25:28;;;;;;;21.05;17.42;;;;;;;10.94;58.89;100381.20;1773253;79;21653;-65
2021/03/31 07:27:57;;;;;;;20.85;18.23;;;;;;;11.02;59.08;100384.87;1724249;82;21203;-64
2021/03/31 07:30:31;;;;;;;23.07;18.90;;;;;;;11.12;59.32;100379.81;1773471;81;21173;-66
2021/03/31 07:33:14;;;;;;;23.25;18.87;;;;;;;11.27;58.95;100379.80;1705402;83;21075;-67
2021/03/31 07:35:42;;;;;;;23.27;18.50;;;;;;;11.33;58.36;100375.72;1774025;81;21350;-67
2021/03/31 07:38:13;;;;;;;24.23;20.05;;;;;;;11.40;58.46;100372.86;1704987;83;21069;-66
2021/03/31 07:40:43;;;;;;;30.62;22.82;;;;;;;11.53;58.32;100376.42;1773240;79;21010;-65
2021/03/31 07:43:17;;;;;;;32.28;23.42;;;;;;;11.63;58.26;100376.06;1723843;83;21522;-66
2021/03/31 07:45:57;;;;;;;23.65;20.23;;;;;;;11.74;58.31;100374.45;1784453;80;21108;-65
2021/03/31 07:48:25;;;;;;;27.45;21.30;;;;;;;11.85;58.19;100364.55;1794708;80;22260;-66
2021/03/31 07:50:53;;;;;;;26.82;22.17;;;;;;;12.01;57.92;100372.71;1793801;78;21182;-65
2021/03/31 07:53:23;;;;;;;26.50;20.68;;;;;;;12.16;57.94;100372.67;1793390;80;21148;-65
2021/03/31 07:55:52;;;;;;;20.60;18.35;;;;;;;12.27;57.66;100366.18;1776341;79;21056;-64
2021/03/31 07:58:30;;;;;;;23.30;18.87;;;;;;;12.44;56.84;100361.68;1762918;80;21069;-62
2021/03/31 08:01:10;;;;;;;21.27;19.02;;;;;;;12.61;56.35;100359.77;1762862;80;21208;-63
2021/03/31 08:03:43;;;;;;;21.35;17.35;;;;;;;12.85;56.03;100352.83;1762725;81;21072;-64
2021/03/31 08:06:21;;;;;;;30.75;19.15;;;;;;;13.01;54.77;100351.34;1791337;80;21525;-64
2021/03/31 08:08:54;;;;;;;19.40;17.20;;;;;;;13.13;54.46;100343.52;1792895;79;21156;-63
2021/03/31 08:11:43;;;;;;;36.85;17.67;;;;;;;13.24;53.31;100343.98;1794229;80;21045;-65
2021/03/31 08:14:16;;;;;;;28.20;17.98;;;;;;;13.35;53.63;100340.06;1794184;78;21420;-63
2021/03/31 08:16:48;;;;;;;31.55;15.80;;;;;;;13.52;53.30;100334.62;1794625;80;21593;-63
2021/03/31 08:19:20;;;;;;;29.72;16.80;;;;;;;13.69;51.91;100335.64;1794152;78;22173;-61
2021/03/31 08:21:49;;;;;;;38.65;18.00;;;;;;;13.74;51.52;100331.55;1794273;79;21061;-61
2021/03/31 08:24:17;;;;;;;26.23;15.93;;;;;;;13.83;50.98;100331.14;1794487;79;21572;-62
2021/03/31 08:26:50;;;;;;;38.10;17.32;;;;;;;13.95;50.56;100328.50;1790067;79;21154;-64
2021/03/31 08:29:25;;;;;;;33.83;16.17;;;;;;;14.08;50.11;100330.98;1753045;80;21180;-63
2021/03/31 08:31:58;;;;;;;33.88;15.78;;;;;;;14.25;49.96;100328.95;1781053;80;21180;-62
2021/03/31 08:34:27;;;;;;;32.23;15.00;;;;;;;14.42;49.50;100326.48;1762635;80;21192;-62
2021/03/31 08:36:55;;;;;;;36.83;17.23;;;;;;;14.56;48.82;100321.52;1768626;80;21140;-61
2021/03/31 08:39:24;;;;;;;61.83;20.82;;;;;;;14.66;48.47;100320.64;1759257;80;21324;-60
2021/03/31 08:41:56;;;;;;;42.67;16.55;;;;;;;14.68;48.46;100318.34;1762849;81;21164;-62
2021/03/31 08:44:36;;;;;;;29.15;15.48;;;;;;;14.70;47.54;100315.66;1762009;81;21205;-63
2021/03/31 08:47:25;;;;;;;30.85;18.15;;;;;;;14.77;47.50;100316.64;1762021;81;21176;-60
2021/03/31 08:50:07;;;;;;;35.05;16.67;;;;;;;14.96;47.41;100308.79;1748671;81;21172;-63
2021/03/31 08:52:37;;;;;;;93.45;20.02;;;;;;;15.12;46.40;100306.30;1762837;81;21195;-63
2021/03/31 08:55:12;;;;;;;23.92;12.47;;;;;;;15.33;45.86;100305.75;1761443;80;21194;-63
2021/03/31 08:57:40;;;;;;;15.30;11.60;;;;;;;15.50;43.10;100298.77;1749960;80;21155;-68
2021/03/31 09:00:09;;;;;;;19.17;11.33;;;;;;;15.72;41.81;100293.36;1787443;78;22222;-64
2021/03/31 09:02:41;;;;;;;19.17;11.70;;;;;;;15.91;39.51;100290.66;1782394;79;21171;-64
2021/03/31 09:05:09;;;;;;;31.65;12.03;;;;;;;16.00;39.76;100285.39;1759411;80;21501;-66
2021/03/31 09:07:37;;;;;;;67.08;17.42;;;;;;;16.07;39.22;100276.30;1759811;80;21210;-62
2021/03/31 09:10:11;;;;;;;49.80;16.35;;;;;;;16.07;39.22;100276.30;1759717;81;21210;-61
2021/03/31 09:12:38;;;;;;;30.32;12.70;;;;;;;16.13;39.29;100277.30;1759722;80;21175;-63
2021/03/31 09:15:08;;;;;;;33.78;11.97;;;;;;;16.37;37.26;100276.03;1772233;80;21643;-62
2021/03/31 09:17:35;;;;;;;32.78;13.65;;;;;;;16.37;37.26;100276.03;1791315;80;21329;-62
2021/03/31 09:20:08;;;;;;;19.92;11.50;;;;;;;16.43;36.88;100274.37;1791203;80;21203;-63
2021/03/31 09:22:37;;;;;;;22.05;11.18;;;;;;;16.52;36.23;100273.06;1791474;80;22169;-64
2021/03/31 09:25:11;;;;;;;26.15;12.55;;;;;;;16.74;35.86;100270.16;1795413;79;21204;-62
2021/03/31 09:27:40;;;;;;;53.15;16.90;;;;;;;16.74;35.86;100270.16;1787063;78;21580;-63
2021/03/31 09:30:13;;;;;;;23.60;12.80;;;;;;;16.84;35.52;100265.62;1791391;79;21378;-62
2021/03/31 09:32:52;;;;;;;16.65;11.18;;;;;;;16.90;34.90;100263.60;1791535;79;21172;-65
2021/03/31 09:35:21;;;;;;;15.03;11.22;;;;;;;16.82;35.12;100265.33;1791970;79;21187;-63
2021/03/31 09:37:53;;;;;;;13.08;11.20;;;;;;;16.68;34.74;100259.52;1792075;80;21121;-62
2021/03/31 09:40:30;;;;;;;26.65;11.88;;;;;;;16.56;35.10;100256.68;1791461;78;21155;-62
2021/03/31 09:43:04;;;;;;;24.77;12.43;;;;;;;16.44;35.62;100254.22;1792357;78;21985;-62
2021/03/31 09:45:34;;;;;;;25.57;13.00;;;;;;;16.44;35.62;100254.22;1792297;79;21203;-62
2021/03/31 09:48:04;;;;;;;25.95;12.40;;;;;;;16.50;35.56;100251.28;1792286;79;21144;-63
2021/03/31 09:50:37;;;;;;;17.85;12.82;;;;;;;16.50;35.56;100251.28;1792203;79;21084;-62
2021/03/31 09:53:07;;;;;;;24.40;12.82;;;;;;;16.47;35.71;100240.47;1792693;78;21644;-63
2021/03/31 09:55:37;;;;;;;24.20;13.90;;;;;;;16.40;35.73;100246.97;1791922;80;21372;-62
2021/03/31 09:58:06;;;;;;;19.05;12.10;;;;;;;16.34;36.42;100242.06;1792237;80;21711;-63
2021/03/31 10:00:40;;;;;;;15.78;13.60;;;;;;;16.41;36.58;100232.91;1792552;80;21497;-63
2021/03/31 10:03:10;;;;;;;16.82;12.90;;;;;;;16.48;36.50;100247.42;1792661;80;21761;-62
2021/03/31 10:05:39;;;;;;;15.23;12.25;;;;;;;16.55;35.25;100229.56;1801991;78;21164;-63
2021/03/31 10:08:09;;;;;;;22.98;13.43;;;;;;;16.50;35.22;100230.27;1794500;80;21198;-63
2021/03/31 10:10:46;;;;;;;45.92;14.18;;;;;;;16.44;35.75;100224.88;1794468;78;21589;-62
2021/03/31 10:13:16;;;;;;;13.98;10.50;;;;;;;16.44;35.38;100222.25;1794451;78;21557;-62
2021/03/31 10:15:57;;;;;;;16.30;11.00;;;;;;;16.28;34.61;100218.75;1794164;79;21147;-62
2021/03/31 10:18:26;;;;;;;15.75;11.03;;;;;;;16.28;34.61;100218.75;1791703;78;21156;-62
2021/03/31 10:20:58;;;;;;;16.45;11.78;;;;;;;16.24;35.01;100216.36;1789973;79;21148;-63
2021/03/31 10:23:31;;;;;;;23.67;12.50;;;;;;;16.36;35.39;100202.61;1790669;79;21172;-62
2021/03/31 10:26:31;;;;;;;28.70;14.18;;;;;;;16.36;35.39;100202.61;1793935;79;21064;-62
2021/03/31 10:29:06;;;;;;;19.45;12.50;;;;;;;16.18;35.70;100205.75;1788444;79;21599;-63
2021/03/31 10:31:39;;;;;;;17.60;11.53;;;;;;;15.99;36.28;100197.96;1791284;78;21179;-62
2021/03/31 10:34:10;;;;;;;19.87;11.65;;;;;;;15.99;36.28;100197.96;1791049;78;21495;-63
2021/03/31 10:39:59;;;;;;;19.62;8.93;;;;;;;15.92;36.45;100190.05;1790701;79;21172;-63
2021/03/31 10:48:15;;;;;;;20.52;9.90;;;;;;;15.94;36.60;100193.44;1767268;80;21524;-62
2021/03/31 10:53:14;;;;;;;17.35;11.85;;;;;;;15.91;37.15;100197.99;1762741;80;21206;-61
2021/03/31 10:55:44;;;;;;;18.90;11.83;;;;;;;15.88;37.30;100191.12;1762672;81;21258;-61
2021/03/31 10:58:12;;;;;;;13.08;10.30;;;;;;;15.90;37.85;100192.36;1762796;80;21092;-61
2021/03/31 11:00:40;;;;;;;13.53;10.70;;;;;;;15.96;38.17;100193.36;1762716;81;21359;-62
2021/03/31 11:03:09;;;;;;;21.95;10.75;;;;;;;15.98;38.28;100189.73;1762097;81;21085;-62
2021/03/31 11:05:36;;;;;;;72.78;16.02;;;;;;;16.06;38.36;100186.69;1762667;81;21541;-62
2021/03/31 11:08:06;;;;;;;21.23;12.90;;;;;;;16.13;38.23;100174.95;1762672;80;21151;-62
2021/03/31 11:10:36;;;;;;;30.45;11.97;;;;;;;16.30;38.34;100178.84;1762883;80;21132;-62
2021/03/31 11:13:04;;;;;;;23.12;11.85;;;;;;;16.30;38.34;100178.84;1762821;81;21443;-62
2021/03/31 11:15:32;;;;;;;20.32;11.93;;;;;;;16.52;37.93;100178.05;1762776;80;21084;-62
2021/03/31 11:18:11;;;;;;;29.42;13.70;;;;;;;16.67;37.44;100170.30;1763157;80;21101;-63
2021/03/31 11:25:58;;;;;;;18.32;12.25;;;;;;;17.05;37.21;100168.98;1763101;81;21262;-61
2021/03/31 11:28:26;;;;;;;38.23;12.82;;;;;;;17.16;37.21;100163.98;1763079;80;21541;-62
2021/03/31 11:30:54;;;;;;;13.83;11.03;;;;;;;17.17;36.91;100164.36;1763063;80;21116;-63
2021/03/31 11:33:23;;;;;;;23.07;12.35;;;;;;;17.15;37.14;100167.54;1763120;81;21056;-62
2021/03/31 11:35:53;;;;;;;18.80;12.20;;;;;;;17.16;37.25;100165.77;1763252;80;21690;-61
2021/03/31 11:38:20;;;;;;;15.23;11.18;;;;;;;17.15;37.65;100174.11;1763115;81;21199;-61
2021/03/31 11:40:49;;;;;;;17.98;11.57;;;;;;;17.17;37.19;100167.45;1763062;81;21068;-62
2021/03/31 11:43:19;;;;;;;13.65;11.20;;;;;;;17.03;37.63;100167.38;1763212;80;21473;-62
2021/03/31 11:45:47;;;;;;;49.00;13.48;;;;;;;16.91;37.96;100169.39;1763165;80;21600;-62
2021/03/31 11:48:16;;;;;;;19.70;11.30;;;;;;;16.79;38.45;100163.03;1774637;78;21175;-63
2021/03/31 11:50:43;;;;;;;44.83;14.25;;;;;;;16.81;38.51;100158.54;1800750;79;22203;-62
2021/03/31 11:53:13;;;;;;;33.45;13.65;;;;;;;16.92;38.50;100159.27;1781914;78;21168;-62
2021/03/31 11:55:45;;;;;;;40.58;14.03;;;;;;;17.00;38.39;100154.41;1780452;80;21237;-68
2021/03/31 11:58:12;;;;;;;15.78;12.03;;;;;;;17.09;38.16;100145.55;1786784;78;21120;-63